Time;durP1;ratioP1;P1;durP2;ratioP2;P2;SDS_P1;SDS_P2;PMS_P1;PMS_P2;Temp;Humidity;BMP_temperature;BMP_pressure;BME280_temperature;BME280_humidity;BME280_pressure;Samples;Min_cycle;Max_cycle;Signal;HPM_P1;HPM_P2
2022/01/21 00:00:14;;;;;;;6.97;4.82;;;;;;;;;;5075908;28;20036;-71
2022/01/21 00:02:40;;;;;;;9.40;5.10;;;;;;;;;;5078144;28;20086;-71
2022/01/21 00:05:07;;;;;;;7.30;4.60;;;;;;;;;;5077103;28;20037;-71
2022/01/21 00:07:33;;;;;;;8.38;4.85;;;;;;;;;;5077775;28;20098;-71
2022/01/21 00:09:59;;;;;;;9.40;5.50;;;;;;;;;;5076920;28;20442;-71
2022/01/21 00:12:28;;;;;;;8.02;4.70;;;;;;;;;;5077380;28;20036;-70
2022/01/21 00:14:55;;;;;;;7.13;4.97;;;;;;;;;;5077478;28;20052;-71
2022/01/21 00:17:22;;;;;;;9.13;4.15;;;;;;;;;;5077284;28;20128;-71
2022/01/21 00:19:52;;;;;;;7.72;4.43;;;;;;;;;;5077538;28;20044;-70
2022/01/21 00:30:33;;;;;;;8.63;5.18;;;;;;;;;;5076853;28;20078;-70
2022/01/21 00:32:59;;;;;;;6.32;4.10;;;;;;;;;;5077740;28;20147;-70
2022/01/21 00:35:27;;;;;;;6.20;4.40;;;;;;;;;;5077028;28;20032;-70
2022/01/21 00:37:53;;;;;;;6.97;4.38;;;;;;;;;;5077065;28;20044;-70
2022/01/21 00:40:22;;;;;;;11.07;4.72;;;;;;;;;;5077020;28;20041;-70
2022/01/21 00:43:43;;;;;;;6.15;4.03;;;;;;;;;;5077110;28;20043;-70
2022/01/21 00:45:35;;;;;;;8.00;4.50;;;;;;;;;;5072627;28;20119;-70
2022/01/21 00:48:02;;;;;;;8.38;4.18;;;;;;;;;;5077139;28;20048;-70
2022/01/21 00:50:28;;;;;;;6.80;4.50;;;;;;;;;;5077201;28;20131;-70
2022/01/21 00:52:54;;;;;;;6.70;4.32;;;;;;;;;;5076647;28;20051;-70
2022/01/21 00:55:20;;;;;;;9.73;4.90;;;;;;;;;;5076773;28;20491;-70
2022/01/21 00:57:46;;;;;;;8.73;5.03;;;;;;;;;;5076792;28;20080;-70
2022/01/21 01:00:14;;;;;;;6.97;4.75;;;;;;;;;;5076954;28;20111;-70
2022/01/21 01:02:40;;;;;;;8.02;4.60;;;;;;;;;;5077313;28;20032;-70
2022/01/21 01:05:07;;;;;;;7.53;4.78;;;;;;;;;;5076463;28;20463;-70
2022/01/21 01:07:33;;;;;;;6.57;4.55;;;;;;;;;;5076669;28;20051;-70
2022/01/21 01:10:02;;;;;;;8.75;4.55;;;;;;;;;;5076648;28;20062;-70
2022/01/21 01:19:56;;;;;;;8.18;4.95;;;;;;;;;;5075964;28;20079;-70
2022/01/21 01:20:47;;;;;;;8.68;5.15;;;;;;;;;;5076071;28;20044;-70
2022/01/21 01:23:26;;;;;;;8.07;4.70;;;;;;;;;;5076044;28;20032;-70
2022/01/21 01:28:38;;;;;;;7.82;4.28;;;;;;;;;;5075487;28;20035;-70
2022/01/21 01:31:04;;;;;;;10.00;4.28;;;;;;;;;;5075934;28;20045;-70
2022/01/21 01:33:39;;;;;;;7.35;4.57;;;;;;;;;;5091316;28;20032;-70
2022/01/21 01:36:06;;;;;;;8.27;4.43;;;;;;;;;;5075865;28;20036;-70
2022/01/21 01:41:37;;;;;;;6.30;4.57;;;;;;;;;;5055292;28;20045;-70
2022/01/21 01:49:37;;;;;;;7.65;4.80;;;;;;;;;;5074838;28;20090;-70
2022/01/21 01:52:05;;;;;;;6.07;4.35;;;;;;;;;;5075135;28;20029;-70
2022/01/21 01:54:32;;;;;;;7.60;4.43;;;;;;;;;;5075190;28;20046;-70
2022/01/21 01:56:59;;;;;;;10.63;4.47;;;;;;;;;;5075098;28;20360;-70
2022/01/21 01:59:25;;;;;;;7.82;4.55;;;;;;;;;;5075703;28;20121;-70
2022/01/21 02:01:59;;;;;;;6.32;4.25;;;;;;;;;;5075274;28;20040;-70
2022/01/21 02:04:26;;;;;;;7.07;4.38;;;;;;;;;;5075195;28;20131;-70
2022/01/21 02:06:52;;;;;;;6.15;3.70;;;;;;;;;;5075760;28;20036;-70
2022/01/21 02:09:19;;;;;;;7.63;3.80;;;;;;;;;;5075277;28;20480;-70
2022/01/21 02:11:46;;;;;;;7.43;4.07;;;;;;;;;;5074855;28;20497;-70
2022/01/21 02:14:16;;;;;;;6.50;3.80;;;;;;;;;;5075068;28;20052;-70
2022/01/21 02:17:12;;;;;;;7.47;3.60;;;;;;;;;;5075406;28;20086;-70
2022/01/21 02:22:28;;;;;;;6.70;3.47;;;;;;;;;;5074547;28;20031;-70
2022/01/21 02:24:58;;;;;;;6.45;3.50;;;;;;;;;;5075293;28;20033;-70
2022/01/21 02:27:25;;;;;;;7.30;3.78;;;;;;;;;;5091144;28;20406;-70
2022/01/21 02:29:54;;;;;;;6.10;3.78;;;;;;;;;;5075471;28;20048;-70
2022/01/21 02:32:21;;;;;;;6.40;3.83;;;;;;;;;;5075063;28;20024;-70
2022/01/21 02:34:48;;;;;;;8.57;4.03;;;;;;;;;;5074928;28;20043;-70
2022/01/21 02:37:15;;;;;;;8.77;3.88;;;;;;;;;;5075606;28;20033;-70
2022/01/21 02:39:42;;;;;;;6.30;3.95;;;;;;;;;;5075200;28;20052;-70
2022/01/21 02:42:08;;;;;;;8.07;4.50;;;;;;;;;;5074735;28;20103;-70
2022/01/21 02:44:35;;;;;;;6.97;3.83;;;;;;;;;;5074967;28;20497;-70
2022/01/21 02:47:03;;;;;;;6.47;4.13;;;;;;;;;;5074961;28;20057;-70
2022/01/21 02:49:29;;;;;;;9.45;4.20;;;;;;;;;;5074148;28;20041;-70
2022/01/21 02:51:56;;;;;;;7.18;4.32;;;;;;;;;;5074848;28;20115;-70
2022/01/21 02:54:22;;;;;;;6.95;4.40;;;;;;;;;;5074845;28;20036;-70
2022/01/21 02:56:49;;;;;;;8.25;4.57;;;;;;;;;;5074560;28;20036;-70
2022/01/21 02:59:16;;;;;;;9.15;4.35;;;;;;;;;;5074389;28;20136;-70
2022/01/21 03:01:43;;;;;;;9.05;4.38;;;;;;;;;;5075333;28;20115;-70
2022/01/21 03:04:13;;;;;;;8.10;4.40;;;;;;;;;;5090141;28;20048;-70
2022/01/21 03:06:39;;;;;;;11.10;4.30;;;;;;;;;;5075367;28;20032;-70
2022/01/21 03:09:06;;;;;;;9.60;4.30;;;;;;;;;;5074653;28;20262;-70
2022/01/21 03:11:33;;;;;;;7.82;3.83;;;;;;;;;;5074723;28;20047;-70
2022/01/21 03:13:59;;;;;;;7.13;4.15;;;;;;;;;;5074309;28;20117;-70
2022/01/21 03:16:25;;;;;;;7.05;3.42;;;;;;;;;;5074695;28;20067;-70
2022/01/21 03:18:52;;;;;;;8.00;4.53;;;;;;;;;;5074238;28;20055;-70
2022/01/21 03:21:18;;;;;;;6.45;3.95;;;;;;;;;;5075171;28;20551;-70
2022/01/21 03:23:46;;;;;;;7.22;4.28;;;;;;;;;;5074274;28;20056;-70
2022/01/21 03:26:14;;;;;;;7.50;3.70;;;;;;;;;;5074567;28;20491;-70
2022/01/21 03:28:41;;;;;;;7.00;4.00;;;;;;;;;;5074497;28;20039;-70
2022/01/21 03:31:07;;;;;;;5.05;3.40;;;;;;;;;;5074578;28;20037;-70
2022/01/21 03:33:33;;;;;;;6.85;3.65;;;;;;;;;;5074273;28;20028;-70
2022/01/21 03:35:59;;;;;;;6.35;4.00;;;;;;;;;;5077955;28;20036;-70
2022/01/21 03:38:27;;;;;;;7.45;3.97;;;;;;;;;;5078045;28;20071;-70
2022/01/21 03:40:54;;;;;;;9.00;4.28;;;;;;;;;;5078385;28;20059;-70
2022/01/21 03:43:21;;;;;;;7.35;4.40;;;;;;;;;;5078552;28;20114;-70
2022/01/21 03:45:47;;;;;;;7.25;4.45;;;;;;;;;;5093875;28;20139;-70
2022/01/21 03:48:14;;;;;;;7.43;4.00;;;;;;;;;;5078130;28;20152;-70
2022/01/21 03:50:40;;;;;;;8.48;3.90;;;;;;;;;;5078258;28;20111;-70
2022/01/21 03:53:06;;;;;;;6.90;3.85;;;;;;;;;;5078039;28;20024;-70
2022/01/21 03:55:34;;;;;;;9.85;4.38;;;;;;;;;;5078148;28;20058;-70
2022/01/21 03:58:01;;;;;;;11.43;4.68;;;;;;;;;;5078247;28;20040;-70
2022/01/21 04:00:29;;;;;;;7.53;4.60;;;;;;;;;;5077799;28;20044;-70
2022/01/21 04:02:56;;;;;;;10.43;4.75;;;;;;;;;;5078482;28;20033;-70
2022/01/21 04:05:22;;;;;;;6.22;4.18;;;;;;;;;;5077767;28;20039;-70
2022/01/21 04:07:49;;;;;;;8.20;4.53;;;;;;;;;;5077538;28;20044;-70
2022/01/21 04:10:15;;;;;;;9.88;4.63;;;;;;;;;;5093130;28;20092;-70
2022/01/21 04:12:41;;;;;;;8.35;4.78;;;;;;;;;;5077993;28;20036;-70
2022/01/21 04:15:08;;;;;;;8.98;5.00;;;;;;;;;;5076997;28;20041;-70
2022/01/21 04:17:35;;;;;;;7.82;4.55;;;;;;;;;;5077811;28;20037;-70
2022/01/21 04:20:01;;;;;;;6.50;4.25;;;;;;;;;;5076802;28;20044;-70
2022/01/21 04:22:27;;;;;;;7.55;4.82;;;;;;;;;;5077515;28;20105;-70
2022/01/21 04:24:54;;;;;;;7.85;3.97;;;;;;;;;;5077201;28;20079;-70
2022/01/21 04:27:21;;;;;;;8.20;4.40;;;;;;;;;;5077176;28;20044;-70
2022/01/21 04:29:47;;;;;;;8.35;4.53;;;;;;;;;;5077336;28;20040;-70
2022/01/21 04:32:15;;;;;;;8.80;4.43;;;;;;;;;;5076813;28;20382;-70
2022/01/21 04:34:41;;;;;;;10.05;4.50;;;;;;;;;;5076861;28;20043;-70
2022/01/21 04:37:11;;;;;;;6.20;4.10;;;;;;;;;;5076742;28;20036;-70
2022/01/21 04:39:43;;;;;;;10.77;4.88;;;;;;;;;;5076635;28;20530;-70
2022/01/21 04:47:46;;;;;;;8.35;4.47;;;;;;;;;;5076329;28;20387;-70
2022/01/21 04:50:14;;;;;;;7.93;4.68;;;;;;;;;;5076402;28;20514;-70
2022/01/21 04:52:41;;;;;;;8.75;4.72;;;;;;;;;;5076358;28;20082;-70
2022/01/21 04:55:08;;;;;;;9.98;4.70;;;;;;;;;;5076355;28;20109;-70
2022/01/21 04:57:34;;;;;;;10.73;4.40;;;;;;;;;;5076543;28;20375;-70
2022/01/21 05:00:01;;;;;;;9.02;5.00;;;;;;;;;;5076374;28;20040;-70
2022/01/21 05:02:28;;;;;;;9.65;5.28;;;;;;;;;;5076513;28;20040;-69
2022/01/21 05:04:54;;;;;;;10.25;4.80;;;;;;;;;;5076226;28;20491;-70
2022/01/21 05:07:24;;;;;;;5.45;4.25;;;;;;;;;;5064518;28;20048;-69
2022/01/21 05:09:50;;;;;;;9.23;4.13;;;;;;;;;;5066121;28;20045;-70
2022/01/21 05:12:20;;;;;;;8.63;4.60;;;;;;;;;;5078478;28;20052;-70
2022/01/21 05:15:04;;;;;;;8.77;4.43;;;;;;;;;;5096626;28;20127;-70
2022/01/21 05:17:30;;;;;;;7.97;4.10;;;;;;;;;;5096986;28;20121;-70
2022/01/21 05:19:56;;;;;;;5.78;3.63;;;;;;;;;;5079950;28;20068;-70
2022/01/21 05:22:23;;;;;;;6.50;3.53;;;;;;;;;;5075818;28;20043;-70
2022/01/21 05:24:49;;;;;;;7.40;3.90;;;;;;;;;;5076367;28;20036;-70
2022/01/21 05:27:15;;;;;;;8.60;3.85;;;;;;;;;;5094982;28;20032;-70
2022/01/21 05:29:42;;;;;;;6.97;3.28;;;;;;;;;;5093207;28;20048;-70
2022/01/21 05:32:08;;;;;;;8.43;3.90;;;;;;;;;;5076156;28;20043;-71
2022/01/21 05:34:34;;;;;;;7.60;4.35;;;;;;;;;;5075628;28;20039;-70
2022/01/21 05:37:01;;;;;;;5.57;3.90;;;;;;;;;;5075810;28;20121;-70
2022/01/21 05:39:27;;;;;;;6.50;3.58;;;;;;;;;;5075821;28;20041;-70
2022/01/21 05:41:53;;;;;;;6.53;3.95;;;;;;;;;;5075220;28;20036;-69
2022/01/21 05:46:57;;;;;;;7.43;3.65;;;;;;;;;;5075334;28;20499;-70
2022/01/21 05:49:25;;;;;;;9.80;3.88;;;;;;;;;;5075784;28;20072;-70
2022/01/21 05:51:53;;;;;;;8.65;3.90;;;;;;;;;;5075822;28;20032;-69
2022/01/21 05:54:25;;;;;;;5.82;3.78;;;;;;;;;;5075557;28;20040;-70
2022/01/21 05:56:51;;;;;;;8.45;3.45;;;;;;;;;;5074604;28;20036;-70
2022/01/21 05:59:18;;;;;;;4.93;2.75;;;;;;;;;;5075195;28;20560;-70
2022/01/21 06:01:44;;;;;;;7.25;3.78;;;;;;;;;;5075339;28;20075;-70
2022/01/21 06:04:10;;;;;;;6.30;3.20;;;;;;;;;;5074863;28;20036;-70
2022/01/21 06:06:36;;;;;;;7.30;3.30;;;;;;;;;;5075010;28;20036;-70
2022/01/21 06:09:03;;;;;;;6.75;3.15;;;;;;;;;;5074694;28;20552;-70
2022/01/21 06:11:30;;;;;;;5.55;3.28;;;;;;;;;;5075486;28;20115;-69
2022/01/21 06:13:56;;;;;;;5.03;3.28;;;;;;;;;;5074796;28;20084;-69
2022/01/21 06:16:23;;;;;;;6.00;3.40;;;;;;;;;;5075098;28;20543;-69
2022/01/21 06:18:49;;;;;;;7.15;3.15;;;;;;;;;;5074479;28;20124;-69
2022/01/21 06:21:15;;;;;;;8.00;3.33;;;;;;;;;;5075294;28;20041;-69
2022/01/21 06:23:41;;;;;;;5.75;3.30;;;;;;;;;;5074697;28;20040;-69
2022/01/21 06:26:08;;;;;;;6.82;3.20;;;;;;;;;;5074956;28;20043;-69
2022/01/21 06:28:34;;;;;;;7.88;3.40;;;;;;;;;;5073647;28;20040;-69
2022/01/21 06:31:01;;;;;;;4.65;3.10;;;;;;;;;;5074660;28;20071;-69
2022/01/21 06:33:27;;;;;;;8.13;3.22;;;;;;;;;;5074714;28;20048;-69
2022/01/21 06:35:54;;;;;;;5.45;3.20;;;;;;;;;;5074544;28;20090;-69
2022/01/21 06:38:21;;;;;;;6.15;3.42;;;;;;;;;;5074640;28;20090;-70
2022/01/21 06:40:47;;;;;;;6.55;3.20;;;;;;;;;;5074603;28;20480;-70
2022/01/21 06:43:14;;;;;;;5.32;3.05;;;;;;;;;;5074744;28;20063;-70
2022/01/21 06:45:41;;;;;;;7.85;3.38;;;;;;;;;;5074410;28;20120;-70
2022/01/21 06:48:07;;;;;;;6.22;3.10;;;;;;;;;;5074452;28;20036;-69
2022/01/21 06:50:38;;;;;;;6.78;3.45;;;;;;;;;;5074453;28;20491;-69
2022/01/21 06:53:04;;;;;;;;;;;;;;;;;;5075123;28;20037;-69
2022/01/21 06:55:30;;;;;;;6.55;3.55;;;;;;;;;;5074604;28;20068;-69
2022/01/21 06:57:56;;;;;;;6.85;3.30;;;;;;;;;;5073216;28;20044;-70
2022/01/21 07:00:22;;;;;;;7.22;3.30;;;;;;;;;;5074752;28;20036;-69
2022/01/21 07:02:49;;;;;;;6.35;3.30;;;;;;;;;;5074798;28;20071;-69
2022/01/21 07:05:15;;;;;;;7.03;2.72;;;;;;;;;;5074350;28;20047;-69
2022/01/21 07:07:42;;;;;;;7.32;2.75;;;;;;;;;;5089198;28;20040;-69
2022/01/21 07:10:11;;;;;;;6.53;3.15;;;;;;;;;;5096864;28;20525;-70
2022/01/21 07:12:37;;;;;;;5.00;2.88;;;;;;;;;;5097979;28;20146;-70
2022/01/21 07:15:04;;;;;;;5.57;2.55;;;;;;;;;;5099086;28;20412;-70
2022/01/21 07:17:30;;;;;;;3.58;2.55;;;;;;;;;;5099006;28;20064;-70
2022/01/21 07:19:56;;;;;;;8.13;2.53;;;;;;;;;;5099019;28;20040;-70
2022/01/21 07:22:22;;;;;;;5.38;2.88;;;;;;;;;;5099274;28;20556;-70
2022/01/21 07:24:48;;;;;;;8.32;3.15;;;;;;;;;;5098797;28;20032;-70
2022/01/21 07:27:15;;;;;;;10.07;3.25;;;;;;;;;;5098881;28;20097;-70
2022/01/21 07:29:42;;;;;;;6.22;2.90;;;;;;;;;;5099003;28;20115;-70
2022/01/21 07:32:08;;;;;;;7.63;3.15;;;;;;;;;;5098225;28;20064;-70
2022/01/21 07:34:35;;;;;;;6.18;3.20;;;;;;;;;;5076348;28;20040;-70
2022/01/21 07:37:01;;;;;;;8.70;3.22;;;;;;;;;;5062898;28;20076;-70
2022/01/21 07:39:27;;;;;;;5.35;3.20;;;;;;;;;;5057615;28;20041;-70
2022/01/21 07:41:53;;;;;;;3.95;2.58;;;;;;;;;;5058059;28;20341;-70
2022/01/21 07:44:19;;;;;;;4.85;2.83;;;;;;;;;;5073789;28;20032;-70
2022/01/21 07:46:47;;;;;;;8.85;3.40;;;;;;;;;;5064608;28;20090;-70
2022/01/21 07:49:14;;;;;;;9.15;3.00;;;;;;;;;;5057469;28;20507;-70
2022/01/21 07:51:40;;;;;;;8.63;3.08;;;;;;;;;;5073336;28;20032;-70
2022/01/21 07:54:06;;;;;;;5.07;2.60;;;;;;;;;;5076350;28;20040;-70
2022/01/21 07:56:35;;;;;;;6.78;3.28;;;;;;;;;;5074723;28;20044;-70
2022/01/21 07:59:01;;;;;;;5.07;2.72;;;;;;;;;;5075953;28;20136;-70
2022/01/21 08:01:28;;;;;;;8.43;2.92;;;;;;;;;;5075719;28;20040;-70
2022/01/21 08:03:54;;;;;;;7.80;3.50;;;;;;;;;;5075448;28;20047;-70
2022/01/21 08:06:20;;;;;;;8.70;3.33;;;;;;;;;;5076053;28;20121;-70
2022/01/21 08:08:46;;;;;;;3.78;2.38;;;;;;;;;;5075843;28;20487;-70
2022/01/21 08:11:12;;;;;;;9.80;2.85;;;;;;;;;;5075422;28;20070;-70
2022/01/21 08:13:38;;;;;;;6.05;2.85;;;;;;;;;;5075384;28;20080;-70
2022/01/21 08:16:04;;;;;;;4.47;2.72;;;;;;;;;;5075323;28;20064;-70
2022/01/21 08:18:31;;;;;;;4.88;2.38;;;;;;;;;;5075305;28;20043;-70
2022/01/21 08:20:57;;;;;;;5.82;3.10;;;;;;;;;;5074615;28;20495;-70
2022/01/21 08:23:23;;;;;;;7.18;2.92;;;;;;;;;;5075278;28;20036;-69
2022/01/21 08:25:49;;;;;;;7.40;2.67;;;;;;;;;;5071873;28;20036;-70
2022/01/21 08:28:15;;;;;;;5.40;2.70;;;;;;;;;;5006195;28;20041;-70
2022/01/21 08:30:41;;;;;;;5.20;2.55;;;;;;;;;;5015470;28;20037;-70
2022/01/21 08:33:08;;;;;;;4.13;2.60;;;;;;;;;;5015219;28;20038;-70
2022/01/21 08:35:34;;;;;;;6.10;3.22;;;;;;;;;;5015252;28;20505;-70
2022/01/21 08:38:00;;;;;;;7.53;3.13;;;;;;;;;;5014633;28;20050;-70
2022/01/21 08:40:26;;;;;;;6.28;3.28;;;;;;;;;;5015102;28;20532;-70
2022/01/21 08:42:53;;;;;;;6.50;3.20;;;;;;;;;;5015396;28;20035;-71
2022/01/21 08:45:19;;;;;;;7.00;2.85;;;;;;;;;;5011972;28;20038;-70
2022/01/21 08:47:46;;;;;;;5.78;2.67;;;;;;;;;;4993864;28;20066;-70
2022/01/21 08:50:13;;;;;;;4.63;2.53;;;;;;;;;;5009806;28;20045;-70
2022/01/21 08:52:41;;;;;;;7.35;3.30;;;;;;;;;;5000637;28;20038;-72
2022/01/21 08:55:11;;;;;;;6.18;2.75;;;;;;;;;;5002321;28;20041;-71
2022/01/21 08:57:40;;;;;;;7.90;2.60;;;;;;;;;;5010602;28;20046;-71
2022/01/21 09:00:26;;;;;;;4.63;2.20;;;;;;;;;;5011138;28;20085;-71
2022/01/21 09:02:53;;;;;;;5.75;2.33;;;;;;;;;;5012723;28;20551;-72
2022/01/21 09:05:19;;;;;;;7.72;2.67;;;;;;;;;;5013133;28;20049;-72
2022/01/21 09:07:45;;;;;;;4.32;2.63;;;;;;;;;;5013540;28;20566;-72
2022/01/21 09:10:12;;;;;;;7.00;2.50;;;;;;;;;;5014202;28;20095;-71
2022/01/21 09:12:38;;;;;;;5.10;2.20;;;;;;;;;;5014576;28;20034;-70
2022/01/21 09:15:06;;;;;;;8.07;2.67;;;;;;;;;;5014516;28;20362;-71
2022/01/21 09:17:35;;;;;;;5.90;2.40;;;;;;;;;;5006063;28;20136;-71
2022/01/21 09:20:01;;;;;;;7.32;2.80;;;;;;;;;;5009899;28;20057;-71
2022/01/21 09:22:27;;;;;;;5.40;2.60;;;;;;;;;;5014155;28;20033;-71
2022/01/21 09:24:53;;;;;;;5.38;2.75;;;;;;;;;;5014273;28;20062;-72
2022/01/21 09:27:19;;;;;;;6.55;3.50;;;;;;;;;;5014601;28;20122;-72
2022/01/21 09:29:45;;;;;;;5.38;2.80;;;;;;;;;;5013936;28;20448;-71
2022/01/21 09:32:11;;;;;;;4.95;2.67;;;;;;;;;;5013397;28;20076;-71
2022/01/21 09:34:38;;;;;;;2.90;2.30;;;;;;;;;;5013111;28;20129;-71
2022/01/21 09:37:04;;;;;;;5.35;2.70;;;;;;;;;;5013494;28;20116;-71
2022/01/21 09:39:30;;;;;;;7.20;2.90;;;;;;;;;;5013495;28;20535;-71
2022/01/21 09:41:59;;;;;;;4.57;2.42;;;;;;;;;;5013067;28;20168;-71
2022/01/21 09:44:26;;;;;;;7.20;2.30;;;;;;;;;;5013583;28;20041;-71
2022/01/21 09:46:54;;;;;;;5.07;2.88;;;;;;;;;;5013286;28;20500;-71
2022/01/21 09:51:47;;;;;;;7.68;2.72;;;;;;;;;;5013976;28;20120;-71
2022/01/21 09:54:13;;;;;;;6.85;2.70;;;;;;;;;;5014216;28;20041;-71
2022/01/21 09:56:41;;;;;;;4.47;2.60;;;;;;;;;;5013940;28;20065;-71
2022/01/21 09:59:08;;;;;;;5.95;2.60;;;;;;;;;;5014040;28;20489;-71
2022/01/21 10:01:34;;;;;;;7.47;2.90;;;;;;;;;;5013439;28;20044;-71
2022/01/21 10:04:00;;;;;;;4.55;2.60;;;;;;;;;;5013988;28;20038;-71
2022/01/21 10:06:27;;;;;;;7.40;2.60;;;;;;;;;;5014010;28;20049;-71
2022/01/21 10:08:57;;;;;;;6.32;2.30;;;;;;;;;;5013683;28;20120;-71
2022/01/21 10:11:23;;;;;;;3.58;2.25;;;;;;;;;;5013480;28;20037;-71
2022/01/21 10:13:50;;;;;;;5.75;2.58;;;;;;;;;;5012697;28;20215;-71
2022/01/21 10:16:16;;;;;;;6.75;2.50;;;;;;;;;;5013572;28;20535;-71
2022/01/21 10:19:00;;;;;;;7.30;2.50;;;;;;;;;;5012897;28;20445;-71
2022/01/21 10:21:34;;;;;;;3.95;2.30;;;;;;;;;;5013104;28;20053;-71
2022/01/21 10:24:05;;;;;;;7.78;2.63;;;;;;;;;;5013356;28;20042;-71
2022/01/21 10:26:31;;;;;;;3.80;2.22;;;;;;;;;;5013088;28;20041;-71
2022/01/21 10:28:57;;;;;;;5.22;2.63;;;;;;;;;;5013302;28;20048;-71
2022/01/21 10:31:30;;;;;;;3.85;2.13;;;;;;;;;;5013151;28;20060;-71
2022/01/21 10:33:59;;;;;;;5.15;2.13;;;;;;;;;;5012889;28;20396;-72
2022/01/21 10:36:31;;;;;;;4.55;2.58;;;;;;;;;;5013312;28;20481;-72
2022/01/21 10:39:11;;;;;;;5.03;2.50;;;;;;;;;;5012962;28;20161;-72
2022/01/21 10:41:46;;;;;;;6.73;2.60;;;;;;;;;;5012795;28;20030;-71
2022/01/21 10:44:14;;;;;;;5.80;2.15;;;;;;;;;;5013165;28;20100;-71
2022/01/21 10:46:42;;;;;;;5.30;2.40;;;;;;;;;;5013448;28;20041;-71
2022/01/21 10:49:10;;;;;;;4.05;1.83;;;;;;;;;;5012022;28;20493;-71
2022/01/21 10:51:37;;;;;;;6.38;2.38;;;;;;;;;;5011918;28;20126;-71
2022/01/21 10:54:17;;;;;;;3.92;2.35;;;;;;;;;;5012342;28;20423;-71
2022/01/21 10:57:02;;;;;;;6.00;2.50;;;;;;;;;;5011756;28;20033;-71
2022/01/21 10:59:44;;;;;;;6.03;2.60;;;;;;;;;;5012169;28;20050;-75
2022/01/21 11:02:11;;;;;;;3.40;2.40;;;;;;;;;;5011865;28;20062;-74
2022/01/21 11:04:41;;;;;;;9.13;4.10;;;;;;;;;;5011803;28;20070;-72
2022/01/21 11:07:08;;;;;;;5.75;3.42;;;;;;;;;;5012022;28;20064;-72
2022/01/21 11:09:38;;;;;;;6.78;2.88;;;;;;;;;;5012480;28;20041;-72
2022/01/21 11:12:14;;;;;;;6.47;2.40;;;;;;;;;;5012226;28;20033;-72
2022/01/21 11:15:00;;;;;;;5.00;2.00;;;;;;;;;;5012319;28;20128;-71
2022/01/21 11:17:27;;;;;;;5.60;2.65;;;;;;;;;;5011713;28;20073;-71
2022/01/21 11:20:16;;;;;;;3.60;2.20;;;;;;;;;;5012003;28;20054;-72
2022/01/21 11:22:54;;;;;;;5.00;2.53;;;;;;;;;;5012431;28;20045;-72
2022/01/21 11:25:39;;;;;;;7.35;2.20;;;;;;;;;;5012010;28;20037;-72
2022/01/21 11:28:05;;;;;;;5.22;2.40;;;;;;;;;;5011318;28;20030;-72
2022/01/21 11:30:31;;;;;;;4.97;2.22;;;;;;;;;;5012498;28;20052;-72
2022/01/21 11:32:57;;;;;;;5.72;2.30;;;;;;;;;;5012341;28;20049;-71
2022/01/21 11:35:24;;;;;;;5.88;2.67;;;;;;;;;;5013076;28;20104;-72
2022/01/21 11:37:50;;;;;;;4.72;2.53;;;;;;;;;;5012337;28;20036;-75
2022/01/21 11:40:16;;;;;;;4.38;2.33;;;;;;;;;;5011945;28;20080;-72
2022/01/21 11:42:42;;;;;;;4.22;2.05;;;;;;;;;;5012700;28;20042;-71
2022/01/21 11:45:30;;;;;;;4.22;2.53;;;;;;;;;;5012780;28;20489;-71
2022/01/21 11:50:34;;;;;;;4.78;2.85;;;;;;;;;;5011864;28;20080;-71
2022/01/21 11:53:00;;;;;;;3.97;2.35;;;;;;;;;;5012337;28;20093;-72
2022/01/21 11:55:29;;;;;;;4.72;2.50;;;;;;;;;;5013460;28;20042;-72
2022/01/21 11:58:17;;;;;;;4.35;2.28;;;;;;;;;;5013899;28;20065;-72
2022/01/21 12:00:44;;;;;;;4.18;2.13;;;;;;;;;;5001888;28;20046;-74
2022/01/21 12:03:10;;;;;;;5.38;2.53;;;;;;;;;;5012314;28;20156;-71
2022/01/21 12:05:37;;;;;;;6.60;2.53;;;;;;;;;;5003609;28;20033;-72
2022/01/21 12:08:05;;;;;;;2.85;2.35;;;;;;;;;;5015038;28;20038;-72
2022/01/21 12:10:35;;;;;;;6.72;2.53;;;;;;;;;;5015485;28;20081;-72
2022/01/21 12:13:08;;;;;;;4.63;2.45;;;;;;;;;;5016177;28;20034;-72
2022/01/21 12:15:55;;;;;;;4.70;2.30;;;;;;;;;;5014741;28;20052;-72
2022/01/21 12:21:03;;;;;;;4.80;2.35;;;;;;;;;;5015550;28;20034;-72
2022/01/21 12:23:30;;;;;;;3.95;2.20;;;;;;;;;;5013715;28;20034;-72
2022/01/21 12:26:14;;;;;;;4.72;1.83;;;;;;;;;;5025970;28;20049;-72
2022/01/21 12:28:42;;;;;;;6.97;2.45;;;;;;;;;;5014316;28;20051;-72
2022/01/21 12:31:09;;;;;;;4.80;2.47;;;;;;;;;;5013264;28;20384;-72
2022/01/21 12:34:04;;;;;;;4.43;2.00;;;;;;;;;;5015152;28;20117;-73
2022/01/21 12:36:33;;;;;;;3.88;2.30;;;;;;;;;;5014185;28;20046;-72
2022/01/21 12:41:25;;;;;;;5.20;3.20;;;;;;;;;;5014275;28;20079;-72
2022/01/21 12:43:53;;;;;;;6.53;2.35;;;;;;;;;;5014680;28;20069;-71
2022/01/21 12:46:19;;;;;;;7.47;2.70;;;;;;;;;;5013458;28;20041;-72
2022/01/21 12:48:46;;;;;;;5.68;2.40;;;;;;;;;;5013758;28;20041;-72
2022/01/21 12:51:16;;;;;;;5.25;2.50;;;;;;;;;;5012705;28;20080;-72
2022/01/21 12:55:55;;;;;;;6.70;2.50;;;;;;;;;;5017339;28;20038;-72
2022/01/21 12:56:33;;;;;;;5.05;2.55;;;;;;;;;;5013631;28;20042;-72
2022/01/21 12:59:00;;;;;;;4.05;2.25;;;;;;;;;;5013523;28;20045;-72
2022/01/21 13:01:26;;;;;;;6.03;2.72;;;;;;;;;;5014068;28;20042;-72
2022/01/21 13:04:02;;;;;;;6.55;2.88;;;;;;;;;;5008370;28;20037;-73
2022/01/21 13:06:47;;;;;;;6.88;2.83;;;;;;;;;;5013899;28;20473;-73
2022/01/21 13:09:17;;;;;;;4.22;2.35;;;;;;;;;;5013946;28;20049;-72
2022/01/21 13:11:53;;;;;;;5.40;2.35;;;;;;;;;;5016737;28;20034;-72
2022/01/21 13:17:05;;;;;;;7.72;2.50;;;;;;;;;;5012615;28;20048;-72
2022/01/21 13:19:42;;;;;;;7.43;2.42;;;;;;;;;;5012566;28;20077;-72
2022/01/21 13:22:19;;;;;;;3.40;2.13;;;;;;;;;;5012787;28;20179;-72
2022/01/21 13:25:09;;;;;;;6.10;2.25;;;;;;;;;;5013135;28;20045;-72
2022/01/21 13:27:37;;;;;;;3.33;2.00;;;;;;;;;;5014629;28;20038;-72
2022/01/21 13:30:05;;;;;;;4.28;1.92;;;;;;;;;;5011734;28;20491;-72
2022/01/21 13:32:31;;;;;;;6.03;2.25;;;;;;;;;;5012035;28;20042;-73
2022/01/21 13:35:11;;;;;;;4.53;1.85;;;;;;;;;;5012965;28;20032;-73
2022/01/21 13:37:39;;;;;;;3.50;1.70;;;;;;;;;;5013195;28;20132;-72
2022/01/21 13:40:08;;;;;;;3.38;1.70;;;;;;;;;;5013120;28;20099;-71
2022/01/21 13:42:34;;;;;;;4.05;1.90;;;;;;;;;;5013674;28;20038;-72
2022/01/21 13:45:02;;;;;;;2.83;1.48;;;;;;;;;;5013594;28;20034;-72
2022/01/21 13:47:39;;;;;;;4.97;1.77;;;;;;;;;;5012337;28;20069;-73
2022/01/21 13:50:19;;;;;;;5.32;2.47;;;;;;;;;;5011930;28;20790;-72
2022/01/21 13:52:58;;;;;;;3.75;1.92;;;;;;;;;;5005881;28;20069;-72
2022/01/21 13:55:41;;;;;;;3.58;1.40;;;;;;;;;;5004844;28;20043;-72
2022/01/21 13:58:11;;;;;;;3.47;1.65;;;;;;;;;;5001249;28;20054;-75
2022/01/21 14:00:40;;;;;;;3.17;1.45;;;;;;;;;;5002126;28;20038;-72
2022/01/21 14:03:08;;;;;;;3.78;1.58;;;;;;;;;;4992461;28;20046;-73
2022/01/21 14:05:46;;;;;;;3.35;1.92;;;;;;;;;;4999685;28;20030;-73
2022/01/21 14:08:21;;;;;;;6.07;1.83;;;;;;;;;;5013286;28;20052;-73
2022/01/21 14:10:47;;;;;;;5.22;2.58;;;;;;;;;;5013027;28;20034;-72
2022/01/21 14:13:13;;;;;;;5.03;1.88;;;;;;;;;;5020840;28;20495;-73
2022/01/21 14:15:40;;;;;;;4.22;1.73;;;;;;;;;;5013607;28;20077;-72
2022/01/21 14:18:06;;;;;;;3.90;1.90;;;;;;;;;;5021347;28;20050;-71
2022/01/21 14:20:35;;;;;;;4.35;2.22;;;;;;;;;;5017644;28;20042;-70
2022/01/21 14:23:01;;;;;;;4.18;1.92;;;;;;;;;;4996263;28;20065;-71
2022/01/21 14:25:28;;;;;;;3.72;1.73;;;;;;;;;;5011086;28;20037;-71
2022/01/21 14:27:54;;;;;;;5.13;1.98;;;;;;;;;;5022983;28;20088;-72
2022/01/21 14:30:21;;;;;;;4.00;1.63;;;;;;;;;;5010645;28;20034;-72
2022/01/21 14:32:51;;;;;;;5.45;2.47;;;;;;;;;;5011539;28;20042;-72
2022/01/21 14:35:25;;;;;;;4.07;2.00;;;;;;;;;;5010473;28;20040;-72
2022/01/21 14:37:52;;;;;;;5.63;1.75;;;;;;;;;;5013060;28;20046;-73
2022/01/21 14:40:23;;;;;;;62.60;36.92;;;;;;;;;;5012938;28;20065;-71
2022/01/21 14:42:49;;;;;;;;;;;;;;;;;;5012826;28;20037;-71
2022/01/21 14:45:17;;;;;;;4.10;1.65;;;;;;;;;;4993747;28;20234;-71
2022/01/21 14:47:44;;;;;;;3.67;1.40;;;;;;;;;;4997822;28;20095;-71
2022/01/21 14:50:14;;;;;;;5.63;1.73;;;;;;;;;;5012964;28;20029;-71
2022/01/21 14:52:42;;;;;;;2.77;1.60;;;;;;;;;;5013697;28;20064;-71
2022/01/21 14:55:17;;;;;;;3.88;1.38;;;;;;;;;;5013453;28;20034;-71
2022/01/21 14:57:47;;;;;;;5.85;1.80;;;;;;;;;;5013410;28;20057;-71
2022/01/21 15:00:13;;;;;;;4.25;2.10;;;;;;;;;;5013263;28;20034;-71
2022/01/21 15:02:41;;;;;;;6.03;1.92;;;;;;;;;;5013424;28;20053;-71
2022/01/21 15:05:11;;;;;;;3.10;1.90;;;;;;;;;;5013241;28;20038;-71
2022/01/21 15:07:38;;;;;;;4.00;1.73;;;;;;;;;;5000246;28;20047;-71
2022/01/21 15:10:21;;;;;;;2.85;1.50;;;;;;;;;;5000057;28;20048;-71
2022/01/21 15:15:46;;;;;;;9.43;4.82;;;;;;;;;;5012538;28;20397;-72
2022/01/21 15:18:16;;;;;;;5.78;1.90;;;;;;;;;;5012361;28;20073;-72
2022/01/21 15:20:44;;;;;;;3.63;1.67;;;;;;;;;;5012538;28;20044;-72
2022/01/21 15:23:11;;;;;;;4.30;2.28;;;;;;;;;;5011335;28;20037;-72
2022/01/21 15:25:37;;;;;;;3.85;1.70;;;;;;;;;;5012828;28;20038;-72
2022/01/21 15:28:04;;;;;;;2.53;1.75;;;;;;;;;;5011967;28;20040;-72
2022/01/21 15:30:31;;;;;;;3.35;2.10;;;;;;;;;;5013319;28;20046;-71
2022/01/21 15:32:57;;;;;;;5.43;2.03;;;;;;;;;;5016516;28;20053;-73
2022/01/21 15:35:25;;;;;;;4.65;2.38;;;;;;;;;;5016430;28;20030;-72
2022/01/21 15:37:51;;;;;;;6.97;2.33;;;;;;;;;;5015279;28;20131;-72
2022/01/21 15:40:18;;;;;;;4.78;2.10;;;;;;;;;;5016265;28;20037;-72
2022/01/21 15:42:44;;;;;;;3.25;1.63;;;;;;;;;;5016061;28;20061;-72